Time;durP1;ratioP1;P1;durP2;ratioP2;P2;SDS_P1;SDS_P2;PMS_P1;PMS_P2;Temp;Humidity;BMP_temperature;BMP_pressure;BME280_temperature;BME280_humidity;BME280_pressure;Samples;Min_cycle;Max_cycle;Signal;HPM_P1;HPM_P2
2021/03/25 00:00:12;;;;;;;16.67;9.40;;;;;;;5.83;66.48;99996.00;4967696;28;20058;-75
2021/03/25 00:02:38;;;;;;;13.43;8.32;;;;;;;5.86;66.57;99992.44;4953055;28;20031;-75
2021/03/25 00:05:06;;;;;;;13.50;7.95;;;;;;;5.89;66.18;100000.25;4956293;28;20118;-75
2021/03/25 00:07:32;;;;;;;18.77;9.50;;;;;;;5.86;66.43;100000.31;4953971;28;20042;-75
2021/03/25 00:09:59;;;;;;;15.05;9.55;;;;;;;5.75;66.58;99993.59;4953129;28;20031;-76
2021/03/25 00:12:25;;;;;;;17.83;10.60;;;;;;;5.60;67.09;99991.38;4953601;28;20098;-76
2021/03/25 00:14:50;;;;;;;17.58;10.25;;;;;;;5.49;67.89;99993.41;4953461;28;20087;-75
2021/03/25 00:17:16;;;;;;;16.50;10.10;;;;;;;5.39;67.87;99987.56;4968371;28;20117;-76
2021/03/25 00:19:41;;;;;;;18.27;9.88;;;;;;;5.38;67.99;99996.28;4987296;28;20077;-76
2021/03/25 00:22:07;;;;;;;16.88;10.35;;;;;;;5.43;68.04;99981.34;4972578;28;20035;-75
2021/03/25 00:24:33;;;;;;;19.38;10.55;;;;;;;5.43;68.33;99977.88;4971738;28;20150;-75
2021/03/25 00:26:58;;;;;;;16.25;10.30;;;;;;;5.31;68.79;99979.03;4988709;28;20427;-76
2021/03/25 00:29:23;;;;;;;24.00;11.20;;;;;;;5.25;68.86;99971.38;4972595;28;20049;-75
2021/03/25 00:31:49;;;;;;;17.42;8.95;;;;;;;5.16;68.87;99975.91;4973107;28;20450;-76
2021/03/25 00:34:15;;;;;;;19.33;11.88;;;;;;;5.13;69.07;99980.34;4972962;28;20034;-75
2021/03/25 00:36:40;;;;;;;19.75;9.07;;;;;;;5.16;68.81;99978.50;4967664;28;20038;-75
2021/03/25 00:39:08;;;;;;;20.88;8.68;;;;;;;5.16;68.90;99968.06;4972005;28;20117;-75
2021/03/25 00:41:35;;;;;;;21.45;12.18;;;;;;;5.16;68.69;99975.03;4972284;28;20039;-76
2021/03/25 00:44:05;;;;;;;15.82;9.23;;;;;;;5.08;68.69;99964.78;4972375;28;20062;-76
2021/03/25 00:46:31;;;;;;;19.15;11.15;;;;;;;5.07;68.71;99967.41;4986757;28;20034;-75
2021/03/25 00:48:56;;;;;;;18.90;11.50;;;;;;;5.00;69.20;99969.34;4971583;28;20050;-75
2021/03/25 00:51:21;;;;;;;20.20;10.98;;;;;;;5.00;68.89;99960.66;4971676;28;20391;-74
2021/03/25 00:53:47;;;;;;;14.63;10.32;;;;;;;4.95;69.42;99955.53;4970780;28;20118;-74
2021/03/25 00:56:12;;;;;;;15.60;10.27;;;;;;;4.93;69.72;99954.69;4970444;28;20073;-74
2021/03/25 00:58:37;;;;;;;18.60;11.05;;;;;;;4.90;69.87;99955.63;4971956;28;20126;-75
2021/03/25 01:01:05;;;;;;;21.27;10.23;;;;;;;4.90;69.91;99958.25;4972126;28;20174;-75
2021/03/25 01:03:30;;;;;;;20.67;12.20;;;;;;;4.91;69.66;99959.94;4971496;28;20529;-76
2021/03/25 01:05:56;;;;;;;24.05;11.80;;;;;;;4.93;69.34;99957.31;4970776;28;20066;-74
2021/03/25 01:08:31;;;;;;;23.10;13.00;;;;;;;4.95;69.84;99960.75;4970754;28;20035;-75
2021/03/25 01:11:18;;;;;;;22.90;11.75;;;;;;;4.90;69.76;99958.25;4984147;28;20093;-75
2021/03/25 01:13:48;;;;;;;19.92;12.93;;;;;;;4.89;69.47;99953.91;4994514;28;20068;-75
2021/03/25 01:16:21;;;;;;;17.88;11.48;;;;;;;4.90;69.46;99958.25;4993686;28;20533;-75
2021/03/25 01:18:47;;;;;;;25.05;13.52;;;;;;;4.91;69.30;99959.94;5009446;28;20045;-74
2021/03/25 01:21:12;;;;;;;26.63;14.02;;;;;;;4.87;69.63;99958.31;4991920;28;20422;-75
2021/03/25 01:23:38;;;;;;;23.15;13.23;;;;;;;4.81;69.50;99953.22;4991372;28;20453;-75
2021/03/25 01:26:03;;;;;;;24.90;12.30;;;;;;;4.77;70.13;99950.72;4991397;28;20034;-75
2021/03/25 01:28:29;;;;;;;27.15;15.07;;;;;;;4.74;70.02;99949.03;5005713;28;20046;-75
2021/03/25 01:30:54;;;;;;;27.58;15.00;;;;;;;4.64;70.62;99951.00;4989890;28;20031;-74
2021/03/25 01:33:23;;;;;;;24.27;12.98;;;;;;;4.53;71.03;99939.94;4989171;28;20072;-74
2021/03/25 01:35:50;;;;;;;26.35;13.95;;;;;;;4.42;71.15;99936.69;4990961;28;20045;-75
2021/03/25 01:38:18;;;;;;;25.92;14.20;;;;;;;4.39;71.30;99934.16;4990218;28;20498;-74
2021/03/25 01:40:47;;;;;;;25.73;13.55;;;;;;;4.44;71.48;99930.53;4990811;28;20547;-74
2021/03/25 01:43:29;;;;;;;24.35;12.98;;;;;;;4.47;71.50;99932.22;4990574;28;20034;-74
2021/03/25 01:46:06;;;;;;;28.05;15.60;;;;;;;4.48;70.95;99933.97;4989181;28;20042;-76
2021/03/25 01:48:35;;;;;;;24.90;15.98;;;;;;;4.48;71.42;99926.13;4990214;28;20498;-75
2021/03/25 01:51:05;;;;;;;25.25;13.93;;;;;;;4.43;71.28;99925.34;4990709;28;20113;-75
2021/03/25 01:53:48;;;;;;;30.33;16.27;;;;;;;4.43;71.45;99925.34;4991002;28;20121;-75
2021/03/25 01:56:39;;;;;;;28.15;14.95;;;;;;;4.40;71.33;99921.06;4990663;28;20405;-75
2021/03/25 01:59:46;;;;;;;30.98;14.75;;;;;;;4.41;71.28;99921.94;4991117;28;20050;-75
2021/03/25 02:02:33;;;;;;;35.92;17.80;;;;;;;4.38;71.47;99920.25;4978400;28;20450;-75
2021/03/25 02:05:17;;;;;;;30.05;17.15;;;;;;;4.38;71.63;99917.66;4991186;28;20062;-76
2021/03/25 02:07:48;;;;;;;27.08;14.55;;;;;;;4.39;71.12;99918.50;4990099;28;20035;-75
2021/03/25 02:10:19;;;;;;;30.50;16.85;;;;;;;4.42;71.23;99913.19;4990386;28;20117;-75
2021/03/25 02:13:09;;;;;;;33.03;16.77;;;;;;;4.40;71.65;99915.84;4992150;28;20061;-76
2021/03/25 02:15:41;;;;;;;32.03;17.17;;;;;;;4.42;71.58;99907.97;4980556;28;20401;-75
2021/03/25 02:18:21;;;;;;;31.02;15.10;;;;;;;4.44;71.00;99908.81;4994461;28;20038;-74
2021/03/25 02:21:17;;;;;;;31.40;15.05;;;;;;;4.46;71.47;99912.25;4991338;28;20101;-74
2021/03/25 02:24:07;;;;;;;31.98;17.73;;;;;;;4.46;71.53;99912.25;4995151;28;20046;-75
2021/03/25 02:27:07;;;;;;;27.35;15.18;;;;;;;4.46;71.64;99914.84;4999209;28;20520;-74
2021/03/25 02:29:39;;;;;;;32.95;16.92;;;;;;;4.48;71.15;99918.31;4959147;28;20043;-74
2021/03/25 02:32:10;;;;;;;33.67;17.65;;;;;;;4.33;71.37;99909.03;4998321;28;20043;-76
2021/03/25 02:34:40;;;;;;;30.88;16.73;;;;;;;4.18;71.86;99919.81;4982881;28;20046;-75
2021/03/25 02:37:13;;;;;;;28.65;17.45;;;;;;;4.09;72.18;99919.09;4974073;28;20046;-75
2021/03/25 02:39:56;;;;;;;36.85;18.42;;;;;;;4.05;72.22;99916.59;4971661;28;20066;-75
2021/03/25 02:42:34;;;;;;;26.35;14.80;;;;;;;4.08;72.18;99912.16;4986896;28;20038;-74
2021/03/25 02:45:21;;;;;;;38.75;21.77;;;;;;;4.11;72.39;99918.22;4952122;28;20044;-76
2021/03/25 02:47:52;;;;;;;41.00;20.17;;;;;;;4.04;72.66;99910.53;4971735;28;20039;-75
2021/03/25 02:50:27;;;;;;;33.97;17.77;;;;;;;3.97;72.84;99910.69;4952496;28;20040;-75
2021/03/25 02:52:58;;;;;;;33.20;18.23;;;;;;;3.94;72.95;99911.59;4969344;28;20030;-75
2021/03/25 02:55:24;;;;;;;33.22;16.70;;;;;;;3.98;72.90;99907.16;4972579;28;20046;-75
2021/03/25 02:58:01;;;;;;;33.67;17.67;;;;;;;4.04;72.61;99913.13;4973342;28;20030;-75
2021/03/25 03:00:35;;;;;;;30.80;16.65;;;;;;;4.11;72.35;99913.88;4972203;28;20035;-75
2021/03/25 03:03:08;;;;;;;28.90;16.30;;;;;;;4.14;72.06;99911.19;4988944;28;20035;-75
2021/03/25 03:05:37;;;;;;;32.28;17.27;;;;;;;4.18;72.14;99910.22;4973635;28;20047;-75
2021/03/25 03:08:21;;;;;;;31.10;15.02;;;;;;;4.24;71.66;99914.47;4989214;28;20030;-75
2021/03/25 03:11:01;;;;;;;30.60;17.40;;;;;;;4.25;71.70;99921.38;4973529;28;20041;-75
2021/03/25 03:13:29;;;;;;;37.63;20.75;;;;;;;4.23;71.21;99926.66;4967705;28;20036;-74
2021/03/25 03:16:02;;;;;;;38.83;19.23;;;;;;;4.21;71.50;99924.94;4954521;28;20041;-75
2021/03/25 03:18:36;;;;;;;30.35;18.33;;;;;;;4.24;71.78;99920.53;4954190;28;20511;-75
2021/03/25 03:21:10;;;;;;;28.02;15.85;;;;;;;4.20;71.46;99928.47;4955073;28;20023;-75
2021/03/25 03:23:35;;;;;;;36.90;19.98;;;;;;;4.18;71.62;99925.88;4954576;28;20521;-75
2021/03/25 03:26:09;;;;;;;34.78;18.95;;;;;;;4.12;71.76;99926.00;4956199;28;20027;-75
2021/03/25 03:28:41;;;;;;;33.40;18.77;;;;;;;4.06;72.25;99927.00;4955258;28;20514;-74
2021/03/25 03:31:12;;;;;;;32.83;18.27;;;;;;;4.06;72.01;99927.00;4974207;28;20041;-74
2021/03/25 03:33:45;;;;;;;39.08;21.45;;;;;;;3.98;72.31;99931.50;4974058;28;20121;-75
2021/03/25 03:36:15;;;;;;;39.80;21.85;;;;;;;3.92;72.60;99929.03;4973560;28;20121;-74
2021/03/25 03:38:59;;;;;;;33.85;18.85;;;;;;;3.87;72.93;99926.50;4971744;28;20054;-76
2021/03/25 03:41:40;;;;;;;35.10;19.60;;;;;;;3.89;73.20;99934.31;4968107;28;20039;-75
2021/03/25 03:44:09;;;;;;;33.55;18.52;;;;;;;3.87;73.57;99936.09;4973105;28;20066;-75
2021/03/25 03:46:37;;;;;;;39.28;22.58;;;;;;;3.90;73.35;99943.00;4974142;28;20495;-74
2021/03/25 03:49:10;;;;;;;33.83;19.73;;;;;;;3.93;73.40;99933.34;4971583;28;20058;-74
2021/03/25 03:51:44;;;;;;;40.08;21.48;;;;;;;3.98;73.48;99943.69;4987045;28;20058;-75
2021/03/25 03:54:11;;;;;;;38.95;21.30;;;;;;;3.96;72.90;99942.84;4972631;28;20529;-75
2021/03/25 03:56:45;;;;;;;37.45;20.55;;;;;;;3.98;72.79;99943.69;4972887;28;20039;-74
2021/03/25 03:59:20;;;;;;;34.90;20.50;;;;;;;4.04;73.05;99944.44;4974277;28;20096;-75
2021/03/25 04:01:56;;;;;;;41.27;20.77;;;;;;;4.12;73.25;99946.03;4954603;28;20071;-74
2021/03/25 04:04:30;;;;;;;;;;;;;;;4.16;72.98;99945.94;4974285;28;20355;-73
2021/03/25 04:07:00;;;;;;;30.40;18.50;;;;;;;4.20;72.48;99954.56;4987294;28;19921;-73
2021/03/25 04:09:32;;;;;;;31.98;18.95;;;;;;;4.24;72.45;99945.78;4987715;28;20035;-74
2021/03/25 04:12:04;;;;;;;35.50;19.90;;;;;;;4.30;72.85;99954.31;4972013;28;20106;-75
2021/03/25 04:14:35;;;;;;;30.02;16.42;;;;;;;4.40;72.61;99957.59;4973112;28;20035;-75
2021/03/25 04:17:04;;;;;;;37.65;20.65;;;;;;;4.53;71.92;99958.22;4972762;28;20030;-75
2021/03/25 04:19:50;;;;;;;38.50;20.17;;;;;;;4.67;72.10;99956.13;4972935;28;20039;-75
2021/03/25 04:22:20;;;;;;;32.20;19.25;;;;;;;4.74;71.54;99959.47;4972933;28;20037;-75
2021/03/25 04:25:07;;;;;;;43.58;23.25;;;;;;;4.80;72.15;99958.47;4972910;28;20035;-75
2021/03/25 04:27:47;;;;;;;42.78;25.38;;;;;;;4.89;72.01;99953.91;4972560;28;20046;-75
2021/03/25 04:30:20;;;;;;;36.22;22.30;;;;;;;4.97;72.18;99953.72;4973077;28;20049;-75
2021/03/25 04:32:49;;;;;;;46.78;26.67;;;;;;;5.07;72.28;99962.19;4971588;28;20114;-74
2021/03/25 04:35:14;;;;;;;34.20;22.65;;;;;;;5.13;71.96;99956.84;4965566;28;20053;-74
2021/03/25 04:37:41;;;;;;;44.45;25.33;;;;;;;5.19;71.96;99951.44;4975495;28;20399;-76
2021/03/25 04:40:11;;;;;;;49.65;30.88;;;;;;;5.24;72.15;99947.00;4971368;28;20031;-75
2021/03/25 04:42:40;;;;;;;48.10;25.05;;;;;;;5.26;72.18;99946.94;4973684;28;20035;-76
2021/03/25 04:45:26;;;;;;;51.78;28.60;;;;;;;5.38;72.37;99950.09;4988422;28;20565;-75
2021/03/25 04:47:55;;;;;;;44.80;24.23;;;;;;;5.48;71.74;99949.88;4973118;28;20035;-77
2021/03/25 04:50:36;;;;;;;46.70;26.67;;;;;;;5.58;71.49;99943.50;4973283;28;20510;-76
2021/03/25 04:53:17;;;;;;;48.58;26.35;;;;;;;5.65;71.31;99958.13;4974605;28;20031;-76
2021/03/25 04:55:42;;;;;;;40.75;24.27;;;;;;;5.71;70.87;99957.97;4974342;28;20045;-76
2021/03/25 04:58:12;;;;;;;46.05;27.00;;;;;;;5.76;70.61;99958.72;4973615;28;20109;-76
2021/03/25 05:00:41;;;;;;;40.28;25.45;;;;;;;5.80;70.30;99959.47;4956775;28;20039;-75
2021/03/25 05:03:14;;;;;;;33.92;23.15;;;;;;;5.86;70.17;99966.28;4971958;28;20089;-75
2021/03/25 05:05:40;;;;;;;51.83;28.00;;;;;;;5.90;70.32;99962.69;4970216;28;20514;-75
2021/03/25 05:08:19;;;;;;;42.45;28.98;;;;;;;5.92;70.13;99971.38;4986453;28;20039;-75
2021/03/25 05:11:05;;;;;;;48.22;30.20;;;;;;;5.82;70.73;99973.38;4971637;28;25194;-75
2021/03/25 05:13:36;;;;;;;53.93;29.90;;;;;;;5.79;70.49;99971.69;4971777;28;20572;-75
2021/03/25 05:16:52;;;;;;;59.13;31.10;;;;;;;5.82;70.56;99974.22;4971987;28;20026;-75
2021/03/25 05:19:17;;;;;;;54.38;31.85;;;;;;;5.80;70.74;99977.78;4911660;29;20119;-75
2021/03/25 05:22:20;;;;;;;63.80;35.15;;;;;;;5.78;70.76;99980.47;4996204;28;20121;-75
2021/03/25 05:24:54;;;;;;;55.78;30.60;;;;;;;5.79;70.96;99976.94;4991250;28;20098;-76
2021/03/25 05:27:28;;;;;;;44.47;28.17;;;;;;;5.79;70.83;99968.22;4991975;28;20037;-75
2021/03/25 05:29:58;;;;;;;48.35;30.65;;;;;;;5.78;70.86;99972.63;4993516;28;20094;-76
2021/03/25 05:32:33;;;;;;;54.40;31.75;;;;;;;5.78;70.43;99979.56;4997695;28;20434;-75
2021/03/25 05:35:03;;;;;;;55.05;35.65;;;;;;;5.77;70.89;99983.09;4990191;28;20363;-76
2021/03/25 05:37:29;;;;;;;57.05;36.28;;;;;;;5.79;71.13;99979.56;4992571;28;20038;-76
2021/03/25 05:39:54;;;;;;;69.25;35.03;;;;;;;5.81;71.07;99972.53;4991896;28;20046;-76
2021/03/25 05:42:29;;;;;;;48.20;31.02;;;;;;;5.84;70.63;99973.34;4991410;28;20129;-75
2021/03/25 05:45:22;;;;;;;60.75;33.17;;;;;;;5.85;70.29;99981.13;4990667;28;20387;-76
2021/03/25 05:48:25;;;;;;;56.40;32.53;;;;;;;5.83;70.56;99982.94;4990868;28;20433;-75
2021/03/25 05:51:00;;;;;;;55.50;32.35;;;;;;;5.80;70.82;99976.03;4990825;28;20117;-76
2021/03/25 05:53:50;;;;;;;60.40;34.40;;;;;;;5.77;70.53;99981.34;4989148;28;20073;-75
2021/03/25 05:56:31;;;;;;;54.67;30.08;;;;;;;5.76;70.87;99979.63;4989844;28;20031;-75
2021/03/25 05:58:58;;;;;;;55.88;36.03;;;;;;;5.77;70.92;99978.72;4991797;28;20030;-76
2021/03/25 06:01:49;;;;;;;59.13;31.13;;;;;;;5.81;71.00;99985.59;4991725;28;20037;-75
2021/03/25 06:04:27;;;;;;;55.88;30.60;;;;;;;5.82;70.82;99991.69;4989331;28;20069;-76
2021/03/25 06:07:14;;;;;;;64.95;31.77;;;;;;;5.86;70.51;99995.94;5006069;28;20121;-75
2021/03/25 06:09:58;;;;;;;54.00;33.28;;;;;;;5.89;70.73;99997.63;4990871;28;20034;-76
2021/03/25 06:12:59;;;;;;;56.42;32.80;;;;;;;5.95;70.27;99992.25;4992193;28;20046;-76
2021/03/25 06:15:48;;;;;;;56.90;32.08;;;;;;;5.99;70.30;99999.13;4991345;28;20038;-76
2021/03/25 06:18:37;;;;;;;52.67;31.10;;;;;;;6.04;70.23;99997.25;4992455;28;20038;-76
2021/03/25 06:21:18;;;;;;;49.03;28.92;;;;;;;6.12;70.72;99999.66;4989709;28;20106;-75
2021/03/25 06:23:59;;;;;;;50.10;28.75;;;;;;;6.19;70.09;99998.56;4991542;28;20052;-75
2021/03/25 06:26:50;;;;;;;50.70;29.50;;;;;;;6.30;69.90;99995.66;4993176;28;20105;-76
2021/03/25 06:29:24;;;;;;;47.53;28.10;;;;;;;6.42;69.64;100001.41;4993079;28;20042;-76
2021/03/25 06:32:08;;;;;;;49.72;31.45;;;;;;;6.51;69.42;100008.13;4994947;28;20042;-75
2021/03/25 06:34:55;;;;;;;56.08;31.85;;;;;;;6.62;69.29;100010.44;4993783;28;20038;-76
2021/03/25 06:37:29;;;;;;;54.42;32.30;;;;;;;6.69;69.13;100014.59;4994721;28;20041;-76
2021/03/25 06:40:00;;;;;;;59.67;35.95;;;;;;;6.74;68.78;100012.69;4994171;28;20030;-75
2021/03/25 06:42:49;;;;;;;55.20;30.40;;;;;;;6.84;68.56;100011.53;4992413;28;20041;-75
2021/03/25 06:45:33;;;;;;;56.78;30.58;;;;;;;6.96;68.11;100015.50;4979919;28;20130;-76
2021/03/25 06:48:19;;;;;;;50.20;31.17;;;;;;;7.04;68.00;100017.94;4995363;28;20096;-76
2021/03/25 06:50:50;;;;;;;52.83;29.70;;;;;;;7.17;67.57;100008.75;4994112;28;20038;-76
2021/03/25 06:53:31;;;;;;;55.42;33.85;;;;;;;7.30;66.85;100006.59;4996210;28;20058;-76
2021/03/25 06:56:04;;;;;;;60.58;33.58;;;;;;;7.42;66.91;100008.81;4994500;28;20034;-75
2021/03/25 06:58:45;;;;;;;63.63;36.15;;;;;;;7.51;66.33;100005.06;4993739;28;20046;-75
2021/03/25 07:01:23;;;;;;;64.20;37.85;;;;;;;7.56;66.45;100004.91;4994419;28;20034;-76
2021/03/25 07:03:54;;;;;;;62.10;38.85;;;;;;;7.67;66.25;100006.22;4994297;28;20046;-75
2021/03/25 07:06:20;;;;;;;51.20;32.08;;;;;;;7.82;65.75;100002.22;4995298;28;20034;-76
2021/03/25 07:08:46;;;;;;;53.88;34.05;;;;;;;8.00;65.30;100002.50;4995511;28;20030;-76
2021/03/25 07:11:18;;;;;;;52.10;34.60;;;;;;;8.10;64.94;100006.53;4995138;28;20037;-76
2021/03/25 07:13:56;;;;;;;52.28;31.95;;;;;;;8.21;64.43;99999.13;4995399;28;20038;-76
2021/03/25 07:16:22;;;;;;;58.22;35.90;;;;;;;8.27;64.05;99993.66;5009739;28;20433;-76
2021/03/25 07:19:16;;;;;;;53.92;34.85;;;;;;;8.36;64.10;99997.69;4994263;28;20041;-76
2021/03/25 07:21:45;;;;;;;55.38;36.78;;;;;;;8.47;64.24;100003.47;4995712;28;20035;-75
2021/03/25 07:24:37;;;;;;;60.08;36.80;;;;;;;8.63;64.02;99997.63;4994301;28;20449;-77
2021/03/25 07:27:09;;;;;;;56.33;36.28;;;;;;;8.75;63.13;100005.03;4994450;28;20034;-75
2021/03/25 07:29:38;;;;;;;64.68;40.08;;;;;;;8.85;63.14;99997.66;4994822;28;20148;-76
2021/03/25 07:32:06;;;;;;;59.25;36.70;;;;;;;8.89;62.42;100002.75;4995671;28;20035;-77
2021/03/25 07:35:09;;;;;;;66.53;38.45;;;;;;;9.12;62.12;100003.59;4995468;28;20355;-75
2021/03/25 07:37:38;;;;;;;70.18;40.60;;;;;;;9.22;62.16;100012.84;4993359;28;20042;-74
2021/03/25 07:40:22;;;;;;;60.63;38.00;;;;;;;9.34;61.25;100019.38;4992641;28;20541;-75
2021/03/25 07:42:47;;;;;;;60.47;38.20;;;;;;;9.52;60.60;100020.41;4993488;28;20561;-75
2021/03/25 07:45:33;;;;;;;70.03;38.95;;;;;;;9.69;60.03;100020.56;4992361;28;20046;-74
2021/03/25 07:48:13;;;;;;;64.60;37.25;;;;;;;9.88;59.74;100025.91;4993358;28;20041;-76
2021/03/25 07:50:40;;;;;;;59.67;39.80;;;;;;;9.87;59.45;100026.84;4992528;28;20065;-74
2021/03/25 07:53:22;;;;;;;60.22;38.60;;;;;;;10.04;59.19;100027.00;4993552;28;20034;-75
2021/03/25 07:55:49;;;;;;;57.38;37.53;;;;;;;10.07;58.40;100029.47;4992482;28;20042;-76
2021/03/25 07:58:33;;;;;;;65.60;39.92;;;;;;;10.30;58.19;100032.91;4993319;28;20584;-75
2021/03/25 08:01:31;;;;;;;67.38;37.28;;;;;;;10.57;57.32;100024.69;5008913;28;20137;-73
2021/03/25 08:03:58;;;;;;;56.67;37.53;;;;;;;10.85;56.12;100025.13;4962776;28;20085;-74
2021/03/25 08:06:28;;;;;;;68.70;40.90;;;;;;;11.11;55.36;100028.34;4996547;28;20450;-74
2021/03/25 08:08:58;;;;;;;54.20;37.75;;;;;;;11.50;54.55;100028.19;4995473;28;20069;-74
2021/03/25 08:11:23;;;;;;;57.35;38.47;;;;;;;11.94;53.11;100029.59;4992712;28;20026;-74
2021/03/25 08:13:57;;;;;;;56.85;40.42;;;;;;;12.46;51.72;100027.72;4993624;28;20416;-75
2021/03/25 08:16:25;;;;;;;71.45;39.03;;;;;;;12.95;49.66;100026.84;4993129;28;20035;-76
2021/03/25 08:19:11;;;;;;;66.90;38.03;;;;;;;12.85;50.38;100028.31;4993089;28;20038;-76
2021/03/25 08:22:04;;;;;;;58.20;36.88;;;;;;;12.69;51.27;100033.56;4993061;28;20133;-76
2021/03/25 08:24:41;;;;;;;57.45;37.88;;;;;;;12.59;50.92;100032.34;4993033;28;20065;-76
2021/03/25 08:27:27;;;;;;;73.20;37.03;;;;;;;12.48;51.27;100035.59;4991174;28;20057;-76
2021/03/25 08:30:02;;;;;;;51.47;38.05;;;;;;;12.37;51.64;100030.84;4991640;28;20038;-74
2021/03/25 08:33:04;;;;;;;56.80;35.53;;;;;;;12.22;51.85;100037.78;4993353;28;20042;-75
2021/03/25 08:35:42;;;;;;;61.20;37.83;;;;;;;12.18;52.23;100033.63;4993626;28;20339;-76
2021/03/25 08:38:26;;;;;;;56.53;37.50;;;;;;;12.10;52.78;100033.13;4993239;28;20038;-74
2021/03/25 08:41:14;;;;;;;51.25;35.42;;;;;;;12.41;52.17;100042.97;4993000;28;20042;-73
2021/03/25 08:43:51;;;;;;;50.22;34.88;;;;;;;12.99;50.71;100044.25;4973925;28;20502;-75
2021/03/25 08:46:27;;;;;;;54.67;33.88;;;;;;;13.65;48.62;100037.91;4973985;28;20038;-75
2021/03/25 08:49:01;;;;;;;;;;;;;;;14.12;47.45;100034.25;4973431;28;20046;-77
2021/03/25 08:51:33;;;;;;;47.25;31.52;;;;;;;14.21;46.85;100032.03;4970646;28;19926;-76
2021/03/25 08:54:01;;;;;;;55.15;34.20;;;;;;;14.41;46.90;100029.00;4971861;28;20031;-76
2021/03/25 08:56:36;;;;;;;48.20;34.13;;;;;;;13.91;47.42;100030.25;4953445;28;20050;-76
2021/03/25 08:59:16;;;;;;;63.55;38.60;;;;;;;13.53;48.62;100044.78;4985557;28;20036;-77
2021/03/25 09:02:26;;;;;;;51.38;33.13;;;;;;;13.30;49.45;100037.31;5011415;28;20430;-75
2021/03/25 09:04:52;;;;;;;53.40;32.92;;;;;;;13.31;49.80;100036.34;5010720;28;20189;-77
2021/03/25 09:07:19;;;;;;;49.13;36.00;;;;;;;13.68;48.83;100034.25;5010893;28;20126;-75
2021/03/25 09:09:52;;;;;;;56.00;34.05;;;;;;;14.19;48.10;100037.41;5011255;28;20045;-76
2021/03/25 09:12:23;;;;;;;51.80;36.08;;;;;;;14.30;46.76;100034.09;5006153;28;20042;-76
2021/03/25 09:14:50;;;;;;;51.53;35.03;;;;;;;14.64;46.71;100034.72;4988045;28;20042;-76
2021/03/25 09:17:20;;;;;;;49.75;34.63;;;;;;;15.13;44.96;100029.81;4990997;28;20089;-75
2021/03/25 09:19:57;;;;;;;46.78;31.98;;;;;;;15.89;43.51;100033.72;4989497;28;20456;-75
2021/03/25 09:22:48;;;;;;;43.47;30.92;;;;;;;16.15;42.83;100039.09;4991948;28;20035;-76
2021/03/25 09:25:19;;;;;;;43.00;31.05;;;;;;;16.46;42.23;100028.03;4992060;28;20038;-78
2021/03/25 09:27:57;;;;;;;45.70;30.83;;;;;;;16.39;42.66;100025.91;4991144;28;20038;-76
2021/03/25 09:30:28;;;;;;;43.90;29.27;;;;;;;16.29;42.53;100034.53;4991732;28;20083;-75
2021/03/25 09:32:54;;;;;;;40.55;30.60;;;;;;;16.51;41.80;100036.56;4991625;28;20027;-75
2021/03/25 09:35:42;;;;;;;46.28;30.88;;;;;;;16.57;41.74;100039.75;4990458;28;20495;-78
2021/03/25 09:38:13;;;;;;;45.05;31.30;;;;;;;16.26;42.38;100033.88;4991770;28;20498;-75
2021/03/25 09:40:50;;;;;;;43.67;31.02;;;;;;;16.05;42.80;100034.41;4990690;28;20038;-75
2021/03/25 09:43:25;;;;;;;47.83;31.23;;;;;;;16.34;42.41;100028.88;4991947;28;20038;-76
2021/03/25 09:45:50;;;;;;;40.55;21.80;;;;;;;16.47;41.70;100032.41;4995029;28;20457;-75
2021/03/25 09:48:28;;;;;;;42.28;22.67;;;;;;;16.32;42.01;100036.13;4993586;28;20027;-75
2021/03/25 09:51:19;;;;;;;34.70;23.40;;;;;;;16.58;41.58;100041.44;4992117;28;20370;-76
2021/03/25 09:53:56;;;;;;;38.75;23.58;;;;;;;16.78;41.46;100040.91;4965442;28;20054;-76
2021/03/25 09:56:32;;;;;;;34.38;22.05;;;;;;;16.81;41.28;100042.50;4972232;28;20026;-75
2021/03/25 09:58:58;;;;;;;35.00;21.65;;;;;;;16.63;41.38;100044.63;4971723;28;20065;-75
2021/03/25 10:01:43;;;;;;;38.08;19.50;;;;;;;16.37;42.44;100039.34;4971174;28;20077;-76
2021/03/25 10:04:30;;;;;;;34.40;19.83;;;;;;;16.87;41.21;100042.94;4992570;28;20571;-75
2021/03/25 10:07:04;;;;;;;27.40;17.67;;;;;;;17.01;40.56;100043.78;5015683;28;20439;-75
2021/03/25 10:09:58;;;;;;;32.33;19.98;;;;;;;16.99;41.38;100041.22;4991841;28;20038;-75
2021/03/25 10:12:46;;;;;;;33.30;19.25;;;;;;;16.83;41.32;100038.78;5009075;28;20147;-76
2021/03/25 10:15:30;;;;;;;27.20;19.35;;;;;;;16.46;42.33;100036.00;4995263;28;20050;-77
2021/03/25 10:17:57;;;;;;;29.70;18.95;;;;;;;16.30;42.72;100035.38;4992835;28;20030;-75
2021/03/25 10:21:01;;;;;;;27.58;19.52;;;;;;;16.20;43.29;100037.81;4991273;28;20049;-75
2021/03/25 10:23:27;;;;;;;32.47;20.02;;;;;;;15.77;43.90;100038.06;4994746;28;20096;-76
2021/03/25 10:26:01;;;;;;;34.67;24.23;;;;;;;16.35;42.96;100043.06;4989679;28;20042;-76
2021/03/25 10:28:29;;;;;;;30.55;20.65;;;;;;;16.48;42.29;100034.09;4989749;28;20042;-77
2021/03/25 10:31:06;;;;;;;31.17;21.50;;;;;;;16.99;41.32;100032.38;4990646;28;20030;-77
2021/03/25 10:33:32;;;;;;;31.83;17.77;;;;;;;17.27;40.90;100033.88;4985861;28;20042;-76
2021/03/25 10:36:08;;;;;;;31.90;17.08;;;;;;;18.02;38.79;100022.97;5005884;28;20030;-76
2021/03/25 10:38:49;;;;;;;28.63;14.80;;;;;;;18.48;37.83;100022.03;5002032;28;20043;-77
2021/03/25 10:41:18;;;;;;;22.75;16.73;;;;;;;18.22;38.33;100024.94;4972568;28;20035;-75
2021/03/25 10:43:48;;;;;;;25.48;16.75;;;;;;;18.19;38.30;100027.00;4971591;28;20495;-76
2021/03/25 10:46:31;;;;;;;25.52;15.38;;;;;;;18.23;37.81;100015.94;4971771;28;20062;-76
2021/03/25 10:49:03;;;;;;;22.05;14.95;;;;;;;17.99;38.06;100021.38;4970965;28;20513;-79
2021/03/25 10:51:40;;;;;;;22.38;15.85;;;;;;;17.92;38.27;100017.47;4985631;28;20491;-77
2021/03/25 10:54:15;;;;;;;62.13;21.42;;;;;;;17.38;39.52;100017.97;4990124;28;20109;-76
2021/03/25 10:56:41;;;;;;;26.88;17.33;;;;;;;16.94;40.46;100022.88;4990301;28;20034;-76
2021/03/25 10:59:14;;;;;;;23.15;16.90;;;;;;;16.84;40.47;100013.88;4988793;28;20026;-76
2021/03/25 11:01:49;;;;;;;25.25;16.83;;;;;;;16.73;40.70;100013.72;5005505;28;20038;-76
2021/03/25 11:04:16;;;;;;;23.70;15.43;;;;;;;16.33;41.64;100021.88;4989670;28;20042;-75
2021/03/25 11:06:42;;;;;;;26.73;14.88;;;;;;;16.22;41.93;100016.41;4990047;28;20038;-76
2021/03/25 11:09:15;;;;;;;28.58;15.82;;;;;;;15.94;42.15;100018.31;5005300;28;20038;-75
2021/03/25 11:11:41;;;;;;;28.70;14.57;;;;;;;15.75;42.50;100013.41;5002074;28;20046;-76
2021/03/25 11:14:17;;;;;;;19.85;13.70;;;;;;;15.69;42.49;100021.75;4967925;28;20026;-77
2021/03/25 11:17:01;;;;;;;27.77;16.90;;;;;;;15.53;43.36;100015.72;4971190;28;20043;-76
2021/03/25 11:19:27;;;;;;;38.72;17.48;;;;;;;15.23;44.19;100014.13;4973498;28;20034;-76
2021/03/25 11:21:56;;;;;;;22.15;16.88;;;;;;;15.14;44.19;100017.41;4991064;28;20042;-77
2021/03/25 11:24:34;;;;;;;28.65;16.30;;;;;;;15.20;44.51;100015.19;4993515;28;20042;-77
2021/03/25 11:27:07;;;;;;;26.88;17.00;;;;;;;15.40;44.52;100015.69;4993500;28;20494;-77
2021/03/25 11:29:40;;;;;;;28.63;19.13;;;;;;;15.37;44.86;100015.91;4992969;28;20164;-77
2021/03/25 11:32:31;;;;;;;32.75;20.55;;;;;;;15.29;45.17;100007.59;4992432;28;20498;-76
2021/03/25 11:35:38;;;;;;;34.10;20.15;;;;;;;15.08;45.45;100004.50;4991573;28;20038;-76
2021/03/25 11:38:25;;;;;;;34.88;19.60;;;;;;;15.53;44.72;100008.66;4992830;28;20036;-75
2021/03/25 11:40:54;;;;;;;29.70;18.58;;;;;;;15.65;44.12;100012.25;4992796;28;20042;-75
2021/03/25 11:43:43;;;;;;;33.95;20.05;;;;;;;15.53;44.39;100010.41;4991591;28;20125;-75
2021/03/25 11:46:10;;;;;;;32.30;18.75;;;;;;;15.34;44.61;100006.34;4992702;28;20034;-75
2021/03/25 11:48:37;;;;;;;22.85;15.82;;;;;;;15.09;45.10;100007.09;4994201;28;20113;-75
2021/03/25 11:51:15;;;;;;;28.02;15.57;;;;;;;15.05;44.85;100007.38;4994463;28;20048;-75
2021/03/25 11:53:42;;;;;;;19.80;15.48;;;;;;;15.14;45.37;100007.63;4991317;28;20108;-74
2021/03/25 11:56:28;;;;;;;38.08;18.00;;;;;;;15.33;45.77;100009.06;4992750;28;20038;-74